createdAt,value
2022-12-12T00:07:21.486Z,79.00
2022-12-12T00:17:25.312Z,78.77
2022-12-12T00:27:28.875Z,78.75
2022-12-12T00:37:32.453Z,78.62
2022-12-12T00:47:36.143Z,78.50
2022-12-12T00:57:39.793Z,78.50
2022-12-12T01:07:43.867Z,78.41
2022-12-12T01:17:47.433Z,78.19
2022-12-12T01:27:51.508Z,78.26
2022-12-12T01:37:55.027Z,78.12
2022-12-12T01:48:03.538Z,78.11
2022-12-12T01:58:09.020Z,77.95
2022-12-12T02:08:13.762Z,77.90
2022-12-12T02:18:32.150Z,77.94
2022-12-12T02:28:54.893Z,77.94
2022-12-12T02:39:36.055Z,78.03
2022-12-12T02:49:48.452Z,78.13
2022-12-12T03:00:02.434Z,78.26
2022-12-12T03:10:27.149Z,78.59
2022-12-12T03:20:43.410Z,78.74
2022-12-12T03:30:50.628Z,78.86
2022-12-12T03:40:58.521Z,78.99
2022-12-12T03:51:09.008Z,79.08
2022-12-12T04:01:15.077Z,79.16
2022-12-12T04:11:40.391Z,79.08
2022-12-12T04:22:16.739Z,79.26
2022-12-12T04:32:40.954Z,79.33
2022-12-12T04:42:51.026Z,79.24
2022-12-12T04:52:57.165Z,78.91
2022-12-12T05:03:24.197Z,79.01
2022-12-12T05:13:40.106Z,78.81
2022-12-12T05:23:44.055Z,78.74
2022-12-12T05:33:47.699Z,78.66
2022-12-12T05:43:51.251Z,78.65
2022-12-12T05:53:54.878Z,78.61
2022-12-12T06:03:58.491Z,78.42
2022-12-12T06:14:02.349Z,78.41
2022-12-12T06:24:07.534Z,78.39
2022-12-12T06:34:11.139Z,78.34
2022-12-12T06:44:15.029Z,78.39
2022-12-12T06:54:19.083Z,78.31
2022-12-12T07:04:23.077Z,78.21
2022-12-12T07:14:26.692Z,78.13
2022-12-12T07:24:30.307Z,78.06
2022-12-12T07:34:33.959Z,77.82
2022-12-12T07:44:37.623Z,77.39
2022-12-12T07:54:41.289Z,77.06
2022-12-12T08:04:44.920Z,76.74
2022-12-12T08:14:48.633Z,76.34
2022-12-12T08:24:52.295Z,75.97
2022-12-12T08:34:58.783Z,75.48
2022-12-12T08:45:02.418Z,74.82
2022-12-12T08:55:06.222Z,74.06
2022-12-12T09:05:10.153Z,73.27
2022-12-12T09:15:14.994Z,72.24
2022-12-12T09:25:19.712Z,71.44
2022-12-12T09:35:23.406Z,70.68
2022-12-12T09:45:43.558Z,69.95
2022-12-12T09:56:12.219Z,69.43
2022-12-12T10:16:43.234Z,69.12
2022-12-12T10:26:46.869Z,68.77
2022-12-12T10:36:59.666Z,68.81
2022-12-12T10:47:06.863Z,68.78
2022-12-12T10:57:24.346Z,68.41
2022-12-12T11:07:29.145Z,68.21
2022-12-12T11:17:34.894Z,68.48
2022-12-12T11:27:41.022Z,68.76
2022-12-12T11:37:50.564Z,69.70
2022-12-12T11:47:54.732Z,70.32
2022-12-12T11:58:07.515Z,70.65
2022-12-12T12:08:26.380Z,71.01
2022-12-12T12:18:55.136Z,72.01
2022-12-12T12:29:20.237Z,72.08
2022-12-12T12:39:24.354Z,71.71
2022-12-12T12:49:39.910Z,71.95
2022-12-12T12:59:57.989Z,72.57
2022-12-12T13:10:14.539Z,72.89
2022-12-12T13:20:23.181Z,73.10
2022-12-12T13:30:37.386Z,73.43
2022-12-12T13:40:43.038Z,73.81
2022-12-12T13:50:46.981Z,74.14
2022-12-12T14:01:46.126Z,74.66
2022-12-12T14:11:50.125Z,74.67
2022-12-12T14:21:53.936Z,75.15
2022-12-12T14:32:13.016Z,75.57
2022-12-12T14:43:18.580Z,76.03
2022-12-12T14:53:22.595Z,76.12
2022-12-12T15:03:30.881Z,76.39
2022-12-12T15:13:34.564Z,76.81
2022-12-12T15:23:42.739Z,76.56
2022-12-12T15:33:48.886Z,76.93
2022-12-12T15:43:52.706Z,76.97
2022-12-12T15:53:56.804Z,77.50
2022-12-12T16:04:21.597Z,77.75
2022-12-12T16:14:51.581Z,77.84
2022-12-12T16:25:09.340Z,77.68
2022-12-12T16:35:18.474Z,78.16
2022-12-12T16:45:22.274Z,78.32
2022-12-12T16:55:26.642Z,78.53
2022-12-12T17:05:30.818Z,78.72
2022-12-12T17:15:35.196Z,78.95
2022-12-12T17:25:38.783Z,79.07
2022-12-12T17:35:43.377Z,79.27
2022-12-12T17:46:04.544Z,79.21
2022-12-12T17:56:11.865Z,79.44
2022-12-12T18:06:16.814Z,79.52
2022-12-12T18:16:22.131Z,79.93
2022-12-12T18:26:26.023Z,79.73
2022-12-12T18:36:31.305Z,79.70
2022-12-12T18:46:42.408Z,79.57
2022-12-12T18:56:47.847Z,79.65
2022-12-12T19:06:51.992Z,79.48
2022-12-12T19:16:55.780Z,79.35
2022-12-12T19:27:00.481Z,79.47
2022-12-12T19:37:04.219Z,79.35
2022-12-12T19:47:08.117Z,79.50
2022-12-12T19:57:14.863Z,79.31
2022-12-12T20:07:18.561Z,79.65
2022-12-12T20:17:24.988Z,79.66
2022-12-12T20:27:30.187Z,79.92
2022-12-12T20:37:33.913Z,80.08
2022-12-12T20:47:37.518Z,80.42
2022-12-12T20:57:42.051Z,80.67
2022-12-12T21:07:45.706Z,81.08
2022-12-12T21:17:49.578Z,81.46
2022-12-12T21:27:53.414Z,81.72
2022-12-12T21:37:56.942Z,81.86
2022-12-12T21:48:00.566Z,82.18
2022-12-12T21:58:04.456Z,82.12
2022-12-12T22:08:08.140Z,82.25
2022-12-12T22:18:11.976Z,82.30
2022-12-12T22:28:15.671Z,82.64
2022-12-12T22:38:19.348Z,82.94
2022-12-12T22:48:23.913Z,83.18
2022-12-12T22:58:27.603Z,83.48
2022-12-12T23:08:31.983Z,83.97
2022-12-12T23:18:38.166Z,84.12
2022-12-12T23:28:42.857Z,84.31
2022-12-12T23:38:46.643Z,84.38
2022-12-12T23:48:50.315Z,84.47
2022-12-12T23:58:55.232Z,84.19
